createdAt,value
2018-11-04T00:00:57.570Z,12.87
2018-11-04T00:03:26.313Z,11.27
2018-11-04T00:05:54.761Z,11.67
2018-11-04T00:08:23.201Z,12.40
2018-11-04T00:10:51.637Z,9.57
2018-11-04T00:13:20.425Z,13.70
2018-11-04T00:15:48.776Z,9.97
2018-11-04T00:18:17.184Z,10.63
2018-11-04T00:20:45.629Z,12.43
2018-11-04T00:23:14.043Z,12.90
2018-11-04T00:25:42.491Z,13.50
2018-11-04T00:28:10.913Z,10.50
2018-11-04T00:30:39.351Z,12.97
2018-11-04T00:33:07.780Z,14.10
2018-11-04T00:35:36.246Z,12.90
2018-11-04T00:38:04.687Z,13.30
2018-11-04T00:40:33.104Z,11.53
2018-11-04T00:43:01.537Z,14.63
2018-11-04T00:45:30.093Z,14.40
2018-11-04T00:47:58.435Z,10.13
2018-11-04T00:50:26.860Z,11.90
2018-11-04T00:52:55.312Z,13.80
2018-11-04T00:55:23.731Z,20.20
2018-11-04T00:57:52.173Z,14.63
2018-11-04T01:00:20.676Z,11.27
2018-11-04T01:02:50.272Z,11.47
2018-11-04T01:05:19.041Z,15.23
2018-11-04T01:07:47.477Z,11.50
2018-11-04T01:10:15.937Z,10.00
2018-11-04T01:12:44.874Z,10.33
2018-11-04T01:15:14.169Z,11.00
2018-11-04T01:17:43.337Z,16.27
2018-11-04T01:20:13.724Z,10.70
2018-11-04T01:22:42.354Z,10.60
2018-11-04T01:25:10.830Z,13.17
2018-11-04T01:27:39.364Z,13.63
2018-11-04T01:30:10.823Z,14.30
2018-11-04T01:32:39.351Z,27.33
2018-11-04T01:35:08.108Z,11.00
2018-11-04T01:37:36.572Z,14.33
2018-11-04T01:40:06.085Z,15.23
2018-11-04T01:42:34.539Z,12.23
2018-11-04T01:45:02.975Z,11.73
2018-11-04T01:47:31.405Z,10.97
2018-11-04T01:49:59.821Z,12.93
2018-11-04T01:52:28.264Z,11.27
2018-11-04T01:54:56.692Z,11.33
2018-11-04T01:57:25.141Z,12.47
2018-11-04T01:59:53.569Z,11.50
2018-11-04T02:02:23.084Z,11.23
2018-11-04T02:04:51.488Z,12.67
2018-11-04T02:07:19.945Z,14.57
2018-11-04T02:09:48.349Z,11.57
2018-11-04T02:12:16.779Z,13.80
2018-11-04T02:14:45.215Z,13.90
2018-11-04T02:17:13.646Z,13.63
2018-11-04T02:19:42.090Z,11.93
2018-11-04T02:22:10.505Z,13.13
2018-11-04T02:24:38.956Z,10.40
2018-11-04T02:27:07.383Z,11.30
2018-11-04T02:29:35.825Z,12.77
2018-11-04T02:32:04.255Z,11.80
2018-11-04T02:34:32.691Z,11.50
2018-11-04T02:37:01.114Z,10.17
2018-11-04T02:39:29.568Z,11.90
2018-11-04T02:41:57.978Z,12.13
2018-11-04T02:44:26.402Z,15.03
2018-11-04T02:46:54.850Z,16.90
2018-11-04T02:49:23.275Z,9.13
2018-11-04T02:51:51.688Z,11.67
2018-11-04T02:54:20.158Z,10.60
2018-11-04T02:56:48.594Z,11.00
2018-11-04T02:59:17.064Z,12.23
2018-11-04T03:01:45.520Z,14.57
2018-11-04T03:04:14.302Z,12.63
2018-11-04T03:06:42.705Z,9.50
2018-11-04T03:09:11.688Z,18.10
2018-11-04T03:11:40.127Z,11.63
2018-11-04T03:14:08.610Z,12.83
2018-11-04T03:16:37.013Z,11.73
2018-11-04T03:19:05.602Z,11.07
2018-11-04T03:21:34.038Z,12.30
2018-11-04T03:24:02.481Z,11.80
2018-11-04T03:26:30.951Z,12.47
2018-11-04T03:29:00.213Z,13.37
2018-11-04T03:31:28.627Z,11.90
2018-11-04T03:33:57.090Z,12.93
2018-11-04T03:36:25.509Z,11.83
2018-11-04T03:38:53.933Z,12.00
2018-11-04T03:41:22.368Z,13.40
2018-11-04T03:43:50.825Z,15.07
2018-11-04T03:46:19.240Z,13.03
2018-11-04T03:48:47.705Z,18.70
2018-11-04T03:51:16.130Z,12.67
2018-11-04T03:53:44.567Z,14.10
2018-11-04T03:56:12.981Z,16.60
2018-11-04T03:58:41.414Z,14.97
2018-11-04T04:01:09.852Z,14.03
2018-11-04T04:03:38.300Z,17.03
2018-11-04T04:06:06.775Z,17.60
2018-11-04T04:08:35.229Z,14.00
2018-11-04T04:11:03.653Z,11.60
2018-11-04T04:13:32.161Z,15.20
2018-11-04T04:16:00.556Z,15.20
2018-11-04T04:18:28.994Z,15.47
2018-11-04T04:21:03.304Z,14.00
2018-11-04T04:23:31.774Z,16.73
2018-11-04T04:26:00.178Z,18.13
2018-11-04T04:28:28.625Z,23.10
2018-11-04T04:30:57.073Z,18.83
2018-11-04T04:33:25.622Z,20.63
2018-11-04T04:35:54.046Z,23.67
2018-11-04T04:38:22.568Z,24.50
2018-11-04T04:40:50.987Z,19.23
2018-11-04T04:43:19.481Z,14.23
2018-11-04T04:45:47.899Z,18.03
2018-11-04T04:48:16.364Z,14.53
2018-11-04T04:50:44.780Z,16.20
2018-11-04T04:53:13.192Z,18.43
2018-11-04T04:55:41.676Z,20.73
2018-11-04T04:58:10.088Z,17.47
2018-11-04T05:00:38.542Z,16.00
2018-11-04T05:03:06.956Z,18.70
2018-11-04T05:05:35.402Z,15.37
2018-11-04T05:08:03.819Z,18.30
2018-11-04T05:10:32.239Z,18.93
2018-11-04T05:13:00.657Z,22.83
2018-11-04T05:15:29.108Z,29.30
2018-11-04T05:17:57.557Z,34.47
2018-11-04T05:20:25.996Z,38.73
2018-11-04T05:22:54.406Z,26.67
2018-11-04T05:25:22.845Z,24.67
2018-11-04T05:27:51.257Z,23.33
2018-11-04T05:30:19.709Z,19.43
2018-11-04T05:32:48.139Z,19.53
2018-11-04T05:35:16.587Z,20.83
2018-11-04T05:37:45.013Z,19.87
2018-11-04T05:40:13.457Z,20.07
2018-11-04T05:42:41.884Z,14.60
2018-11-04T05:45:10.372Z,21.13
2018-11-04T05:47:38.816Z,20.77
2018-11-04T05:50:07.496Z,21.73
2018-11-04T05:52:36.423Z,20.23
2018-11-04T05:55:05.493Z,18.20
2018-11-04T05:57:34.062Z,20.23
2018-11-04T06:00:02.508Z,19.63
2018-11-04T06:02:30.985Z,19.17
2018-11-04T06:04:59.420Z,23.67
2018-11-04T06:07:27.853Z,19.23
2018-11-04T06:09:56.260Z,18.47
2018-11-04T06:12:24.722Z,22.30
2018-11-04T06:14:53.417Z,23.40
2018-11-04T06:17:21.876Z,18.40
2018-11-04T06:19:50.298Z,20.83
2018-11-04T06:22:18.745Z,25.57
2018-11-04T06:24:47.143Z,20.60
2018-11-04T06:27:15.629Z,21.33
2018-11-04T06:29:44.052Z,21.07
2018-11-04T06:32:12.617Z,18.97
2018-11-04T06:34:41.067Z,23.43
2018-11-04T06:37:09.483Z,20.13
2018-11-04T06:39:37.890Z,20.90
2018-11-04T06:42:06.356Z,24.17
2018-11-04T06:44:34.773Z,22.23
2018-11-04T06:47:05.244Z,24.03
2018-11-04T06:49:33.588Z,24.97
2018-11-04T06:52:02.054Z,20.60
2018-11-04T06:54:30.477Z,21.70
2018-11-04T06:56:58.908Z,25.30
2018-11-04T06:59:27.425Z,24.30
2018-11-04T07:01:55.897Z,21.90
2018-11-04T07:04:25.866Z,23.80
2018-11-04T07:06:54.286Z,25.47
2018-11-04T07:09:22.729Z,23.67
2018-11-04T07:11:51.260Z,25.37
2018-11-04T07:14:20.536Z,23.60
2018-11-04T07:16:49.033Z,23.00
2018-11-04T07:19:17.749Z,27.80
2018-11-04T07:21:46.216Z,28.80
2018-11-04T07:24:14.943Z,28.67
2018-11-04T07:26:43.460Z,26.90
2018-11-04T07:29:11.911Z,28.30
2018-11-04T07:31:40.319Z,50.40
2018-11-04T07:34:09.025Z,41.20
2018-11-04T07:36:37.510Z,31.20
2018-11-04T07:39:09.298Z,28.97
2018-11-04T07:41:37.727Z,32.70
2018-11-04T07:44:06.338Z,184.70
2018-11-04T07:46:34.722Z,35.60
2018-11-04T07:49:03.168Z,35.90
2018-11-04T07:51:31.639Z,42.50
2018-11-04T07:54:00.060Z,32.03
2018-11-04T07:56:28.484Z,29.57
2018-11-04T07:58:59.489Z,34.20
2018-11-04T08:01:27.966Z,33.63
2018-11-04T08:03:56.495Z,34.73
2018-11-04T08:06:24.924Z,35.97
2018-11-04T08:08:53.407Z,35.80
2018-11-04T08:11:21.826Z,34.13
2018-11-04T08:13:50.252Z,35.60
2018-11-04T08:16:18.709Z,39.13
2018-11-04T08:18:47.248Z,32.60
2018-11-04T08:21:15.783Z,35.37
2018-11-04T08:23:44.216Z,38.03
2018-11-04T08:26:12.616Z,38.33
2018-11-04T08:28:41.046Z,36.13
2018-11-04T08:31:09.444Z,36.83
2018-11-04T08:33:37.900Z,38.60
2018-11-04T08:36:06.359Z,37.57
2018-11-04T08:38:34.809Z,41.83
2018-11-04T08:41:03.248Z,38.70
2018-11-04T08:43:31.676Z,37.00
2018-11-04T08:46:00.079Z,35.27
2018-11-04T08:48:28.512Z,35.40
2018-11-04T08:50:56.913Z,36.60
2018-11-04T08:53:25.349Z,37.97
2018-11-04T08:55:53.788Z,40.60
2018-11-04T08:58:22.223Z,39.80
2018-11-04T09:00:50.702Z,41.70
2018-11-04T09:03:19.115Z,37.83
2018-11-04T09:05:47.609Z,41.90
2018-11-04T09:08:16.025Z,41.10
2018-11-04T09:10:44.452Z,39.10
2018-11-04T09:13:12.882Z,40.50
2018-11-04T09:15:41.323Z,50.40
2018-11-04T09:18:09.744Z,33.97
2018-11-04T09:20:38.207Z,40.37
2018-11-04T09:23:06.608Z,48.27
2018-11-04T09:25:35.156Z,41.50
2018-11-04T09:28:03.582Z,39.73
2018-11-04T09:30:32.069Z,40.80
2018-11-04T09:33:00.528Z,39.30
2018-11-04T09:35:30.494Z,44.20
2018-11-04T09:37:58.840Z,43.87
2018-11-04T09:40:27.295Z,47.23
2018-11-04T09:42:55.737Z,44.23
2018-11-04T09:45:24.201Z,49.30
2018-11-04T09:47:52.604Z,71.50
2018-11-04T09:50:21.118Z,45.53
2018-11-04T09:52:49.540Z,42.43
2018-11-04T09:55:18.011Z,47.37
2018-11-04T09:57:46.415Z,49.87
2018-11-04T10:00:15.846Z,44.00
2018-11-04T10:02:45.910Z,45.60
2018-11-04T10:05:14.459Z,43.07
2018-11-04T10:07:42.863Z,50.73
2018-11-04T10:10:12.856Z,46.47
2018-11-04T10:12:42.484Z,46.33
2018-11-04T10:15:11.223Z,42.73
2018-11-04T10:17:40.312Z,44.13
2018-11-04T10:20:10.740Z,44.67
2018-11-04T10:22:39.230Z,47.93
2018-11-04T10:25:08.600Z,38.83
2018-11-04T10:27:37.371Z,45.53
2018-11-04T10:30:07.934Z,44.07
2018-11-04T10:32:36.364Z,44.10
2018-11-04T10:35:05.484Z,42.70
2018-11-04T10:37:33.978Z,41.63
2018-11-04T10:40:02.434Z,42.53
2018-11-04T10:42:30.874Z,46.23
2018-11-04T10:44:59.324Z,43.37
2018-11-04T10:47:27.779Z,40.10
2018-11-04T10:49:56.302Z,43.23
2018-11-04T10:52:24.749Z,46.17
2018-11-04T10:54:53.272Z,47.90
2018-11-04T10:57:21.678Z,46.93
2018-11-04T10:59:50.686Z,38.53
2018-11-04T11:02:19.180Z,39.40
2018-11-04T11:04:47.628Z,47.70
2018-11-04T11:07:16.069Z,51.10
2018-11-04T11:09:44.502Z,83.90
2018-11-04T11:12:12.934Z,42.53
2018-11-04T11:14:41.401Z,45.87
2018-11-04T11:17:09.820Z,43.23
2018-11-04T11:19:38.262Z,42.10
2018-11-04T11:22:06.719Z,44.50
2018-11-04T11:24:35.165Z,40.97
2018-11-04T11:27:03.631Z,42.47
2018-11-04T11:29:32.060Z,43.23
2018-11-04T11:32:00.531Z,40.17
2018-11-04T11:34:28.956Z,43.73
2018-11-04T11:36:57.420Z,43.43
2018-11-04T11:39:25.849Z,48.53
2018-11-04T11:41:54.297Z,41.90
2018-11-04T11:44:22.720Z,54.33
2018-11-04T11:46:51.189Z,42.13
2018-11-04T11:49:19.648Z,38.60
2018-11-04T11:51:48.080Z,39.50
2018-11-04T11:54:16.503Z,43.53
2018-11-04T11:56:44.955Z,37.50
2018-11-04T11:59:13.409Z,39.30
2018-11-04T12:01:41.858Z,40.73
2018-11-04T12:04:10.383Z,41.43
2018-11-04T12:06:39.085Z,38.70
2018-11-04T12:09:07.994Z,45.00
2018-11-04T12:11:36.450Z,40.40
2018-11-04T12:14:04.938Z,39.00
2018-11-04T12:16:33.381Z,37.40
2018-11-04T12:19:01.822Z,37.73
2018-11-04T12:21:30.281Z,40.27
2018-11-04T12:23:58.710Z,36.07
2018-11-04T12:26:27.182Z,33.60
2018-11-04T12:28:55.604Z,34.00
2018-11-04T12:31:24.060Z,36.43
2018-11-04T12:33:52.496Z,33.90
2018-11-04T12:36:20.964Z,36.73
2018-11-04T12:38:49.398Z,39.13
2018-11-04T12:41:17.874Z,35.27
2018-11-04T12:43:46.288Z,37.00
2018-11-04T12:46:14.742Z,36.67
2018-11-04T12:48:43.171Z,34.27
2018-11-04T12:51:11.620Z,35.03
2018-11-04T12:53:40.048Z,33.20
2018-11-04T12:56:08.509Z,34.97
2018-11-04T12:58:36.937Z,38.20
2018-11-04T13:01:05.733Z,43.47
2018-11-04T13:03:34.146Z,41.00
2018-11-04T13:06:02.607Z,38.33
2018-11-04T13:08:31.082Z,39.60
2018-11-04T13:10:59.538Z,42.47
2018-11-04T13:13:27.992Z,40.83
2018-11-04T13:15:56.434Z,39.50
2018-11-04T13:18:24.910Z,39.97
2018-11-04T13:20:53.369Z,39.67
2018-11-04T13:23:21.810Z,38.00
2018-11-04T13:25:50.245Z,37.17
2018-11-04T13:28:18.712Z,41.50
2018-11-04T13:30:47.136Z,37.07
2018-11-04T13:33:15.582Z,39.60
2018-11-04T13:35:44.028Z,37.73
2018-11-04T13:38:12.509Z,44.50
2018-11-04T13:40:40.936Z,42.37
2018-11-04T13:43:09.452Z,41.50
2018-11-04T13:45:37.871Z,40.03
2018-11-04T13:48:06.696Z,41.73
2018-11-04T13:50:35.134Z,45.93
2018-11-04T13:53:03.592Z,45.40
2018-11-04T13:55:32.008Z,48.27
2018-11-04T13:58:00.516Z,47.70
2018-11-04T14:00:28.978Z,49.40
2018-11-04T14:02:57.523Z,49.50
2018-11-04T14:05:25.932Z,48.87
2018-11-04T14:07:54.412Z,50.07
2018-11-04T14:10:22.846Z,46.00
2018-11-04T14:12:51.348Z,49.53
2018-11-04T14:15:19.752Z,46.20
2018-11-04T14:17:48.188Z,54.80
2018-11-04T14:20:16.637Z,47.53
2018-11-04T14:22:45.089Z,51.00
2018-11-04T14:25:13.571Z,48.03
2018-11-04T14:27:42.076Z,46.47
2018-11-04T14:30:12.713Z,54.23
2018-11-04T14:32:41.291Z,51.33
2018-11-04T14:35:10.636Z,67.67
2018-11-04T14:37:40.090Z,54.17
2018-11-04T14:40:10.410Z,50.53
2018-11-04T14:42:39.551Z,55.13
2018-11-04T14:45:08.329Z,50.33
2018-11-04T14:47:37.170Z,45.83
2018-11-04T14:50:09.217Z,47.67
2018-11-04T14:52:37.874Z,47.63
2018-11-04T14:55:06.708Z,51.27
2018-11-04T14:57:35.422Z,53.57
2018-11-04T15:00:04.149Z,51.47
2018-11-04T15:02:32.595Z,51.40
2018-11-04T15:05:01.358Z,51.37
2018-11-04T15:07:29.906Z,52.37
2018-11-04T15:09:58.249Z,53.67
2018-11-04T15:12:26.672Z,52.30
2018-11-04T15:14:55.122Z,54.93
2018-11-04T15:17:23.537Z,54.73
2018-11-04T15:19:52.000Z,50.77
2018-11-04T15:22:20.437Z,48.43
2018-11-04T15:24:48.968Z,52.33
2018-11-04T15:27:17.357Z,50.47
2018-11-04T15:29:45.813Z,51.13
2018-11-04T15:32:14.233Z,50.03
2018-11-04T15:34:42.884Z,51.60
2018-11-04T15:37:11.127Z,64.50
2018-11-04T15:39:39.605Z,54.00
2018-11-04T15:42:08.046Z,58.03
2018-11-04T15:44:36.514Z,51.53
2018-11-04T15:47:05.340Z,61.97
2018-11-04T15:49:33.795Z,51.57
2018-11-04T15:52:02.242Z,61.37
2018-11-04T15:54:30.689Z,58.40
2018-11-04T15:57:06.120Z,53.07
2018-11-04T15:59:34.516Z,61.33
2018-11-04T16:02:02.962Z,57.50
2018-11-04T16:04:31.416Z,56.87
2018-11-04T16:06:59.852Z,62.90
2018-11-04T16:09:28.300Z,54.10
2018-11-04T16:11:56.729Z,57.30
2018-11-04T16:14:25.161Z,67.00
2018-11-04T16:16:53.585Z,57.70
2018-11-04T16:19:22.060Z,56.43
2018-11-04T16:21:50.473Z,55.50
2018-11-04T16:24:18.919Z,60.03
2018-11-04T16:26:47.340Z,54.63
2018-11-04T16:29:15.776Z,48.40
2018-11-04T16:31:44.235Z,52.30
2018-11-04T16:34:12.838Z,55.10
2018-11-04T16:36:41.253Z,58.50
2018-11-04T16:39:10.144Z,53.33
2018-11-04T16:41:38.578Z,54.30
2018-11-04T16:44:07.799Z,56.13
2018-11-04T16:46:36.427Z,57.10
2018-11-04T16:49:05.449Z,59.33
2018-11-04T16:51:33.869Z,56.73
2018-11-04T16:54:02.344Z,56.17
2018-11-04T16:56:30.765Z,51.53
2018-11-04T16:58:59.210Z,64.97
2018-11-04T17:01:27.672Z,55.70
2018-11-04T17:03:56.150Z,61.37
2018-11-04T17:06:24.660Z,56.43
2018-11-04T17:08:53.429Z,53.03
2018-11-04T17:11:21.969Z,58.27
2018-11-04T17:13:50.439Z,54.70
2018-11-04T17:16:18.916Z,62.70
2018-11-04T17:18:47.331Z,56.77
2018-11-04T17:21:15.772Z,60.90
2018-11-04T17:23:44.184Z,60.20
2018-11-04T17:26:12.641Z,56.60
2018-11-04T17:28:41.080Z,60.30
2018-11-04T17:31:09.540Z,63.63
2018-11-04T17:33:37.976Z,69.70
2018-11-04T17:36:06.566Z,57.87
2018-11-04T17:38:34.917Z,63.77
2018-11-04T17:41:03.365Z,62.90
2018-11-04T17:43:31.797Z,60.00
2018-11-04T17:46:00.241Z,67.40
2018-11-04T17:48:28.672Z,62.03
2018-11-04T17:50:57.120Z,63.43
2018-11-04T17:53:25.537Z,63.27
2018-11-04T17:55:53.986Z,65.90
2018-11-04T17:58:22.396Z,58.03
2018-11-04T18:00:50.864Z,65.53
2018-11-04T18:03:19.293Z,67.37
2018-11-04T18:05:47.736Z,66.10
2018-11-04T18:08:16.203Z,65.80
2018-11-04T18:10:44.646Z,65.27
2018-11-04T18:13:13.095Z,63.20
2018-11-04T18:15:41.574Z,70.70
2018-11-04T18:18:10.422Z,69.87
2018-11-04T18:20:38.887Z,61.27
2018-11-04T18:23:07.287Z,63.87
2018-11-04T18:25:35.734Z,62.83
2018-11-04T18:28:04.165Z,68.77
2018-11-04T18:30:32.594Z,68.97
2018-11-04T18:33:01.026Z,67.10
2018-11-04T18:35:29.462Z,73.63
2018-11-04T18:37:57.868Z,65.77
2018-11-04T18:40:26.317Z,69.30
2018-11-04T18:42:54.726Z,66.53
2018-11-04T18:45:23.159Z,70.47
2018-11-04T18:47:51.556Z,73.13
2018-11-04T18:50:20.086Z,70.07
2018-11-04T18:52:48.748Z,69.73
2018-11-04T18:55:17.010Z,75.57
2018-11-04T18:57:45.471Z,67.00
2018-11-04T19:00:15.295Z,76.37
2018-11-04T19:02:43.989Z,70.43
2018-11-04T19:05:12.494Z,75.50
2018-11-04T19:07:40.881Z,79.23
2018-11-04T19:10:12.281Z,80.13
2018-11-04T19:12:40.768Z,75.10
2018-11-04T19:15:09.404Z,75.47
2018-11-04T19:17:38.081Z,75.37
2018-11-04T19:20:08.397Z,78.03
2018-11-04T19:22:37.156Z,77.33
2018-11-04T19:25:06.190Z,87.10
2018-11-04T19:27:34.633Z,76.03
2018-11-04T19:30:03.060Z,85.50
2018-11-04T19:32:31.497Z,78.90
2018-11-04T19:34:59.936Z,70.60
2018-11-04T19:37:28.454Z,71.40
2018-11-04T19:39:56.812Z,75.90
2018-11-04T19:42:25.268Z,76.90
2018-11-04T19:44:53.690Z,77.37
2018-11-04T19:47:22.153Z,85.20
2018-11-04T19:49:50.568Z,81.10
2018-11-04T19:52:19.021Z,77.00
2018-11-04T19:54:47.417Z,79.93
2018-11-04T19:57:15.873Z,75.50
2018-11-04T19:59:44.297Z,80.10
2018-11-04T20:02:12.764Z,84.10
2018-11-04T20:04:41.207Z,85.00
2018-11-04T20:07:09.664Z,92.43
2018-11-04T20:09:38.093Z,87.00
2018-11-04T20:12:10.714Z,83.63
2018-11-04T20:14:39.155Z,87.90
2018-11-04T20:17:07.597Z,90.70
2018-11-04T20:19:41.337Z,86.67
2018-11-04T20:22:09.639Z,89.93
2018-11-04T20:24:43.358Z,88.10
2018-11-04T20:27:11.796Z,94.23
2018-11-04T20:29:40.209Z,89.23
2018-11-04T20:32:13.856Z,94.57
2018-11-04T20:34:42.277Z,98.37
2018-11-04T20:37:10.737Z,92.30
2018-11-04T20:39:44.589Z,90.63
2018-11-04T20:42:13.032Z,93.00
2018-11-04T20:44:47.568Z,96.20
2018-11-04T20:47:16.332Z,95.20
2018-11-04T20:49:50.068Z,94.60
2018-11-04T20:52:18.958Z,92.60
2018-11-04T20:54:47.469Z,88.67
2018-11-04T20:57:21.112Z,89.83
2018-11-04T20:59:49.534Z,93.20
2018-11-04T21:02:18.237Z,94.80
2018-11-04T21:04:46.459Z,98.40
2018-11-04T21:07:14.905Z,94.87
2018-11-04T21:09:43.367Z,91.70
2018-11-04T21:12:11.793Z,96.50
2018-11-04T21:14:40.215Z,90.27
2018-11-04T21:17:08.647Z,88.80
2018-11-04T21:19:37.106Z,83.10
2018-11-04T21:22:08.928Z,89.73
2018-11-04T21:24:37.363Z,76.50
2018-11-04T21:27:06.374Z,92.07
2018-11-04T21:29:35.151Z,77.73
2018-11-04T21:32:03.649Z,83.73
2018-11-04T21:34:32.058Z,86.93
2018-11-04T21:37:00.513Z,87.07
2018-11-04T21:39:28.926Z,82.10
2018-11-04T21:41:57.351Z,91.03
2018-11-04T21:44:25.964Z,93.33
2018-11-04T21:46:54.250Z,86.27
2018-11-04T21:49:22.751Z,92.10
2018-11-04T21:51:51.144Z,89.20
2018-11-04T21:54:19.585Z,84.63
2018-11-04T21:56:48.008Z,91.57
2018-11-04T21:59:16.445Z,89.47
2018-11-04T22:01:44.915Z,85.50
2018-11-04T22:04:13.428Z,92.40
2018-11-04T22:06:41.820Z,87.00
2018-11-04T22:09:10.769Z,86.93
2018-11-04T22:11:39.295Z,89.87
2018-11-04T22:14:07.760Z,83.70
2018-11-04T22:16:36.179Z,91.43
2018-11-04T22:19:04.638Z,88.90
2018-11-04T22:21:33.061Z,92.03
2018-11-04T22:24:01.517Z,90.40
2018-11-04T22:26:29.971Z,83.40
2018-11-04T22:28:58.418Z,87.63
2018-11-04T22:31:26.956Z,90.50
2018-11-04T22:33:55.439Z,81.93
2018-11-04T22:36:23.891Z,92.53
2018-11-04T22:38:52.357Z,84.20
2018-11-04T22:41:21.046Z,95.77
2018-11-04T22:43:49.496Z,80.40
2018-11-04T22:46:17.937Z,92.50
2018-11-04T22:48:46.382Z,82.17
2018-11-04T22:51:14.786Z,73.80
2018-11-04T22:53:43.244Z,77.83
2018-11-04T22:56:11.781Z,84.10
2018-11-04T22:58:40.124Z,89.83
2018-11-04T23:01:08.583Z,87.07
2018-11-04T23:03:37.053Z,78.77
2018-11-04T23:06:12.049Z,81.07
2018-11-04T23:08:40.486Z,80.67
2018-11-04T23:11:08.893Z,81.27
2018-11-04T23:13:37.339Z,81.27
2018-11-04T23:16:05.812Z,82.40
2018-11-04T23:18:34.268Z,95.13
2018-11-04T23:21:02.699Z,77.93
2018-11-04T23:23:31.155Z,89.67
2018-11-04T23:25:59.574Z,101.43
2018-11-04T23:28:28.033Z,90.50
2018-11-04T23:30:56.446Z,101.67
2018-11-04T23:33:24.885Z,84.37
2018-11-04T23:35:53.313Z,91.27
2018-11-04T23:38:21.768Z,96.70
2018-11-04T23:40:50.199Z,97.57
2018-11-04T23:43:18.657Z,95.17
2018-11-04T23:45:47.120Z,90.57
2018-11-04T23:48:15.550Z,92.63
2018-11-04T23:50:44.002Z,108.00
2018-11-04T23:53:12.409Z,95.97
2018-11-04T23:55:40.846Z,89.43
2018-11-04T23:58:10.915Z,99.07
